Time;durP1;ratioP1;P1;durP2;ratioP2;P2;SDS_P1;SDS_P2;PMS_P1;PMS_P2;Temp;Humidity;BMP_temperature;BMP_pressure;BME280_temperature;BME280_humidity;BME280_pressure;Samples;Min_cycle;Max_cycle;Signal;HPM_P1;HPM_P2
2023/03/17 00:04:44;;;;;;;15.87;9.63;;;2.30;99.90;;;;;;10072188;29;20266;-88
2023/03/17 00:09:46;;;;;;;17.97;9.17;;;2.00;99.90;;;;;;10087262;29;20718;-88
2023/03/17 00:14:49;;;;;;;16.90;9.77;;;2.30;99.90;;;;;;10060557;29;20821;-87
2023/03/17 00:19:52;;;;;;;15.80;9.03;;;3.50;99.90;;;;;;10088912;29;20265;-88
2023/03/17 00:24:54;;;;;;;14.20;9.63;;;3.80;99.90;;;;;;10072453;29;20308;-87
2023/03/17 00:29:57;;;;;;;16.73;9.87;;;4.40;99.90;;;;;;10092493;29;20315;-88
2023/03/17 00:34:59;;;;;;;18.30;10.70;;;4.40;99.90;;;;;;10091495;29;20292;-88
2023/03/17 00:40:05;;;;;;;14.63;9.23;;;4.50;99.90;;;;;;10090025;29;20277;-88
2023/03/17 00:45:09;;;;;;;17.83;8.80;;;4.70;99.90;;;;;;10060659;29;20257;-88
2023/03/17 00:50:16;;;;;;;16.17;10.43;;;5.80;99.90;;;;;;10092356;29;20248;-87
2023/03/17 00:55:20;;;;;;;20.90;11.13;;;6.10;99.90;;;;;;10091050;29;20326;-88
2023/03/17 01:00:26;;;;;;;17.10;11.37;;;5.50;99.90;;;;;;10080861;29;20237;-88
2023/03/17 01:05:29;;;;;;;26.97;15.73;;;5.40;99.90;;;;;;10088934;29;20324;-87
2023/03/17 01:10:32;;;;;;;19.63;11.67;;;6.40;99.90;;;;;;10063438;29;20646;-87
2023/03/17 01:15:36;;;;;;;15.90;10.73;;;6.70;99.90;;;;;;10058860;29;20329;-88
2023/03/17 01:20:39;;;;;;;19.70;12.47;;;7.40;99.90;;;;;;10071178;29;20281;-87
2023/03/17 01:25:43;;;;;;;17.43;11.33;;;6.80;99.90;;;;;;10065650;29;20249;-87
2023/03/17 01:30:46;;;;;;;21.70;13.97;;;6.90;99.90;;;;;;10077578;29;21059;-87
2023/03/17 01:35:49;;;;;;;20.97;13.33;;;6.30;99.90;;;;;;10085757;29;20276;-88
2023/03/17 01:40:53;;;;;;;18.47;12.10;;;6.10;99.90;;;;;;10076248;29;20771;-87
2023/03/17 01:46:24;;;;;;;19.80;11.20;;;6.90;99.90;;;;;;10088576;29;20241;-88
2023/03/17 01:51:32;;;;;;;15.77;10.47;;;7.10;99.90;;;;;;10089322;29;20224;-88
2023/03/17 01:56:36;;;;;;;24.80;15.33;;;6.40;99.90;;;;;;10087714;29;20264;-88
2023/03/17 02:01:44;;;;;;;18.47;11.23;;;6.50;99.90;;;;;;10076384;29;20269;-88
2023/03/17 02:06:49;;;;;;;21.93;12.87;;;6.20;99.90;;;;;;10052095;29;20270;-87
2023/03/17 02:12:01;;;;;;;17.37;11.30;;;6.70;99.90;;;;;;10062160;29;20301;-87
2023/03/17 02:17:04;;;;;;;14.80;9.77;;;7.00;99.90;;;;;;10072814;29;20292;-88
2023/03/17 02:22:07;;;;;;;19.90;12.87;;;7.50;99.90;;;;;;10078035;29;20274;-88
2023/03/17 02:27:16;;;;;;;20.00;13.47;;;7.70;99.90;;;;;;10077695;29;20297;-88
2023/03/17 02:32:20;;;;;;;21.57;13.23;;;7.70;99.90;;;;;;10093853;29;20250;-87
2023/03/17 02:37:22;;;;;;;20.27;12.60;;;7.00;99.90;;;;;;10069359;29;20256;-88
2023/03/17 02:42:27;;;;;;;24.43;14.07;;;6.40;99.90;;;;;;10072824;29;20242;-88
2023/03/17 02:47:33;;;;;;;14.33;8.40;;;6.40;99.90;;;;;;10086922;29;20304;-88
2023/03/17 02:52:36;;;;;;;28.20;17.00;;;7.00;99.90;;;;;;10085018;29;20267;-88
2023/03/17 02:57:38;;;;;;;18.57;11.23;;;7.00;99.90;;;;;;10075420;29;20325;-88
2023/03/17 03:02:41;;;;;;;20.20;12.37;;;7.30;99.90;;;;;;10093253;29;20704;-88
2023/03/17 03:07:44;;;;;;;22.97;14.00;;;7.70;99.90;;;;;;10082565;29;20252;-90
2023/03/17 03:12:47;;;;;;;19.43;11.53;;;7.60;99.90;;;;;;10108919;29;20678;-90
2023/03/17 03:17:50;;;;;;;18.93;12.07;;;7.50;99.90;;;;;;10072564;29;20277;-90
2023/03/17 03:22:52;;;;;;;21.83;14.47;;;7.50;99.90;;;;;;10069510;29;20317;-90
2023/03/17 03:27:55;;;;;;;22.23;11.07;;;7.40;99.90;;;;;;10072928;29;20250;-90
2023/03/17 03:32:58;;;;;;;16.60;11.20;;;8.00;99.90;;;;;;10075332;29;20269;-91
2023/03/17 03:38:01;;;;;;;19.90;12.60;;;8.10;99.90;;;;;;10070771;29;20736;-90
2023/03/17 03:43:05;;;;;;;25.93;16.43;;;7.80;99.90;;;;;;10060368;29;20237;-90
2023/03/17 03:48:23;;;;;;;21.57;12.23;;;7.60;98.30;;;;;;10071364;29;20245;-90
2023/03/17 03:53:27;;;;;;;18.53;10.57;;;8.30;99.90;;;;;;10074141;29;20292;-90
2023/03/17 03:58:29;;;;;;;19.00;9.53;;;8.90;99.90;;;;;;10091523;29;20296;-90
2023/03/17 04:03:32;;;;;;;26.70;16.87;;;9.30;99.90;;;;;;10104905;29;20237;-89
2023/03/17 04:08:35;;;;;;;21.90;14.33;;;9.40;95.70;;;;;;10092496;29;20708;-90
2023/03/17 04:13:38;;;;;;;21.10;12.10;;;9.00;96.10;;;;;;10095556;29;20652;-89
2023/03/17 04:18:40;;;;;;;26.87;17.20;;;8.40;99.90;;;;;;10110292;29;20970;-89
2023/03/17 04:23:44;;;;;;;20.30;11.20;;;8.10;95.50;;;;;;10074003;29;20245;-89
2023/03/17 04:28:46;;;;;;;19.77;9.30;;;7.60;99.90;;;;;;10062337;29;20300;-90
2023/03/17 04:33:49;;;;;;;23.33;12.40;;;7.10;99.90;;;;;;10079434;29;20245;-90
2023/03/17 04:38:52;;;;;;;28.13;16.87;;;6.60;99.90;;;;;;10060139;29;20286;-90
2023/03/17 04:43:54;;;;;;;23.90;14.70;;;6.70;95.80;;;;;;10104824;29;20237;-90
2023/03/17 04:48:57;;;;;;;27.37;18.23;;;6.40;99.90;;;;;;10116254;29;20240;-89
2023/03/17 04:54:00;;;;;;;20.10;10.87;;;5.90;95.90;;;;;;10118454;29;20666;-89
2023/03/17 04:59:03;;;;;;;18.13;11.37;;;6.00;99.90;;;;;;10119866;29;20270;-89
2023/03/17 05:04:05;;;;;;;26.30;18.50;;;6.20;99.90;;;;;;10129976;29;20252;-89
2023/03/17 05:09:08;;;;;;;36.03;23.13;;;6.00;99.90;;;;;;10116088;29;20701;-89
2023/03/17 05:14:11;;;;;;;28.73;18.83;;;6.60;99.90;;;;;;10077321;29;20280;-89
2023/03/17 05:19:14;;;;;;;18.33;12.13;;;6.00;98.30;;;;;;10089233;29;20336;-89
2023/03/17 05:24:17;;;;;;;19.37;10.60;;;5.60;99.90;;;;;;10086814;29;20244;-90
2023/03/17 05:29:20;;;;;;;17.30;10.23;;;6.20;99.90;;;;;;10107335;29;20287;-90
2023/03/17 05:34:22;;;;;;;16.10;9.70;;;7.50;99.90;;;;;;10103978;29;20240;-88
2023/03/17 05:39:25;;;;;;;15.67;10.10;;;7.90;99.90;;;;;;10095846;29;20731;-90
2023/03/17 05:44:28;;;;;;;25.77;13.53;;;8.00;99.90;;;;;;10083085;29;20277;-90
2023/03/17 05:49:31;;;;;;;26.30;13.87;;;8.70;94.60;;;;;;10089893;29;20315;-90
2023/03/17 05:54:33;;;;;;;30.83;15.87;;;9.00;73.10;;;;;;10090315;29;20244;-91
2023/03/17 05:59:36;;;;;;;26.10;16.53;;;7.40;70.10;;;;;;10068419;29;20335;-91
2023/03/17 06:04:39;;;;;;;31.10;17.40;;;7.40;82.60;;;;;;10081381;29;20244;-90
2023/03/17 06:09:42;;;;;;;28.33;18.20;;;7.00;75.20;;;;;;10086238;29;20265;-90
2023/03/17 06:14:45;;;;;;;28.77;15.47;;;6.10;76.80;;;;;;10085741;29;20252;-90
2023/03/17 06:19:47;;;;;;;21.33;14.03;;;6.50;91.30;;;;;;10087632;29;20272;-91
2023/03/17 06:24:52;;;;;;;30.03;15.10;;;7.10;90.50;;;;;;10059546;29;20240;-90
2023/03/17 06:29:56;;;;;;;26.77;15.27;;;7.40;84.60;;;;;;10087333;29;20658;-91
2023/03/17 06:35:00;;;;;;;21.87;13.50;;;8.40;92.10;;;;;;10089527;29;20248;-90
2023/03/17 06:40:04;;;;;;;24.63;14.23;;;8.70;85.50;;;;;;10088661;29;20314;-90
2023/03/17 06:45:08;;;;;;;26.83;15.03;;;7.90;84.00;;;;;;10079363;29;20666;-91
2023/03/17 06:50:11;;;;;;;25.47;14.40;;;7.80;90.80;;;;;;10058176;29;20735;-91
2023/03/17 06:55:14;;;;;;;22.27;9.37;;;7.80;83.50;;;;;;10057614;29;20242;-87
2023/03/17 07:00:18;;;;;;;27.80;15.83;;;8.10;97.50;;;;;;10057884;29;20333;-87
2023/03/17 07:05:21;;;;;;;29.10;14.80;;;9.60;67.20;;;;;;10056783;29;20256;-88
2023/03/17 07:10:25;;;;;;;27.67;15.63;;;9.30;69.00;;;;;;10060821;29;20232;-88
2023/03/17 07:15:30;;;;;;;33.93;16.17;;;8.40;59.70;;;;;;10095946;29;20280;-88
2023/03/17 07:20:33;;;;;;;26.10;14.37;;;8.50;60.20;;;;;;10095499;29;20272;-87
2023/03/17 07:25:36;;;;;;;24.37;15.13;;;8.00;74.10;;;;;;10095933;29;20256;-88
2023/03/17 07:30:39;;;;;;;23.57;12.43;;;7.70;66.50;;;;;;10095752;29;20308;-88
2023/03/17 07:35:43;;;;;;;26.87;14.90;;;7.90;82.10;;;;;;10095712;29;20805;-87
2023/03/17 07:40:47;;;;;;;22.73;13.40;;;8.60;68.00;;;;;;10094289;29;20721;-87
2023/03/17 07:45:50;;;;;;;20.77;11.83;;;9.60;67.80;;;;;;10094984;29;20236;-87
2023/03/17 07:50:53;;;;;;;23.40;13.13;;;10.10;71.30;;;;;;10093965;29;20264;-87
2023/03/17 07:55:56;;;;;;;22.80;13.53;;;10.50;64.20;;;;;;10095291;29;20270;-88
2023/03/17 08:00:58;;;;;;;23.53;13.77;;;10.30;60.30;;;;;;10093051;29;20307;-87
2023/03/17 08:06:02;;;;;;;19.97;11.80;;;10.30;68.00;;;;;;10094761;29;20252;-87
2023/03/17 08:11:05;;;;;;;22.63;13.33;;;11.00;67.00;;;;;;10086014;29;20248;-87
2023/03/17 08:16:08;;;;;;;25.97;14.20;;;11.90;54.50;;;;;;10066232;29;20288;-87
2023/03/17 08:21:10;;;;;;;20.00;13.23;;;11.90;45.50;;;;;;10093260;29;20263;-87
2023/03/17 08:26:17;;;;;;;20.90;12.73;;;11.50;49.90;;;;;;10086230;29;20316;-86
2023/03/17 08:31:21;;;;;;;22.40;12.03;;;12.20;48.90;;;;;;10082778;29;20273;-86
2023/03/17 08:36:24;;;;;;;18.37;13.57;;;11.40;59.90;;;;;;10053998;29;20276;-87
2023/03/17 08:41:28;;;;;;;23.80;12.83;;;;;;;;;;10063844;29;20780;-87
2023/03/17 08:46:31;;;;;;;18.37;11.30;;;11.80;47.60;;;;;;10054869;29;20692;-87
2023/03/17 08:51:36;;;;;;;22.20;11.87;;;12.90;48.80;;;;;;10078616;29;20256;-86
2023/03/17 08:56:39;;;;;;;14.77;9.47;;;12.90;50.40;;;;;;10105765;29;20267;-86
2023/03/17 09:01:43;;;;;;;20.57;10.77;;;12.40;56.20;;;;;;10090473;29;20257;-86
2023/03/17 09:06:46;;;;;;;16.73;10.93;;;13.40;48.40;;;;;;10075101;29;20281;-86
2023/03/17 09:12:06;;;;;;;20.30;12.30;;;13.80;48.00;;;;;;10090978;29;20252;-86
2023/03/17 09:17:10;;;;;;;15.67;11.43;;;13.40;42.60;;;;;;10088155;29;20268;-87
2023/03/17 09:22:14;;;;;;;20.07;10.50;;;13.50;44.20;;;;;;10078449;29;20675;-86
2023/03/17 09:27:16;;;;;;;16.00;9.53;;;13.50;46.80;;;;;;10090566;29;20300;-87
2023/03/17 09:32:21;;;;;;;15.07;9.07;;;13.90;56.60;;;;;;10074775;29;20297;-87
2023/03/17 09:37:24;;;;;;;17.57;9.67;;;13.90;60.90;;;;;;10086620;29;20730;-87
2023/03/17 09:42:46;;;;;;;18.73;10.17;;;13.70;60.00;;;;;;10089375;29;20266;-86
2023/03/17 09:48:12;;;;;;;17.23;9.87;;;14.10;61.10;;;;;;10090147;29;20713;-86
2023/03/17 09:53:55;;;;;;;20.77;12.60;;;14.20;59.00;;;;;;10095281;29;20715;-85
2023/03/17 09:59:02;;;;;;;17.83;8.30;;;13.50;39.70;;;;;;10105345;29;20818;-86
2023/03/17 10:04:05;;;;;;;12.97;8.27;;;13.80;55.70;;;;;;10101656;29;20315;-86
2023/03/17 10:09:39;;;;;;;18.30;11.00;;;14.10;56.40;;;;;;10106247;29;20309;-87
2023/03/17 10:14:47;;;;;;;10.77;6.87;;;13.60;49.80;;;;;;10114248;29;20239;-87
2023/03/17 10:20:22;;;;;;;16.30;8.93;;;13.10;60.40;;;;;;10123511;29;21030;-87
2023/03/17 10:25:28;;;;;;;12.97;7.67;;;13.00;56.70;;;;;;10088802;29;20659;-86
2023/03/17 10:30:33;;;;;;;11.63;9.07;;;12.90;57.30;;;;;;10091670;29;20248;-86
2023/03/17 10:35:38;;;;;;;19.07;13.13;;;13.20;54.80;;;;;;10097022;29;20338;-87
2023/03/17 10:40:46;;;;;;;13.30;7.47;;;12.60;39.00;;;;;;10095619;29;20805;-86
2023/03/17 10:46:03;;;;;;;22.37;12.77;;;12.90;63.20;;;;;;10078052;29;20695;-86
2023/03/17 10:51:09;;;;;;;21.57;13.77;;;13.30;53.00;;;;;;10066607;29;20293;-87
2023/03/17 10:56:25;;;;;;;20.17;11.23;;;13.30;47.00;;;;;;10114662;29;20252;-87
2023/03/17 11:01:46;;;;;;;10.30;7.37;;;13.60;62.80;;;;;;10084841;29;20299;-87
2023/03/17 11:06:51;;;;;;;21.17;13.93;;;13.70;67.30;;;;;;10095111;29;20256;-87
2023/03/17 11:12:17;;;;;;;17.90;12.13;;;13.70;47.50;;;;;;10084755;29;20305;-87
2023/03/17 11:17:30;;;;;;;19.13;10.97;;;13.30;47.40;;;;;;10081967;29;20265;-87
2023/03/17 11:22:41;;;;;;;15.93;9.67;;;13.00;47.90;;;;;;10074657;29;20254;-86
2023/03/17 11:28:01;;;;;;;11.90;7.33;;;13.80;60.30;;;;;;10077491;29;20244;-87
2023/03/17 11:33:37;;;;;;;14.07;8.90;;;13.70;70.20;;;;;;10093944;29;20253;-87
2023/03/17 11:38:57;;;;;;;23.60;12.27;;;14.00;61.40;;;;;;10131100;29;20300;-87
2023/03/17 11:44:17;;;;;;;22.13;11.93;;;13.90;46.50;;;;;;10110011;29;20240;-87
2023/03/17 11:49:23;;;;;;;17.43;10.93;;;12.80;47.60;;;;;;10076876;29;20270;-86
2023/03/17 11:54:46;;;;;;;14.10;7.80;;;13.10;58.50;;;;;;10090192;29;20302;-86
2023/03/17 12:00:15;;;;;;;19.60;10.23;;;14.10;69.20;;;;;;10069361;29;20276;-86
2023/03/17 12:05:23;;;;;;;32.10;15.03;;;14.30;65.20;;;;;;10114951;29;20240;-86
2023/03/17 12:10:44;;;;;;;17.93;11.10;;;13.30;47.00;;;;;;10105243;29;20245;-87
2023/03/17 12:15:51;;;;;;;18.57;8.80;;;12.60;67.20;;;;;;10113851;29;20236;-87
2023/03/17 12:21:10;;;;;;;16.07;11.70;;;13.50;66.90;;;;;;10117821;29;20323;-87
2023/03/17 12:26:17;;;;;;;23.57;14.20;;;13.20;50.20;;;;;;10108615;29;20231;-87
2023/03/17 12:31:24;;;;;;;30.43;12.97;;;13.20;39.70;;;;;;10110698;29;20240;-87
2023/03/17 12:36:37;;;;;;;19.57;12.63;;;12.80;53.10;;;;;;10111558;29;20244;-87
2023/03/17 12:42:07;;;;;;;14.67;8.27;;;13.30;48.30;;;;;;10108415;29;20256;-87
2023/03/17 12:47:35;;;;;;;12.10;6.23;;;12.70;53.40;;;;;;10106068;29;20236;-87
2023/03/17 12:53:01;;;;;;;17.67;10.43;;;13.60;65.10;;;;;;10024514;29;20767;-87
2023/03/17 12:58:21;;;;;;;14.77;7.97;;;13.20;41.70;;;;;;10007687;29;20274;-87
2023/03/17 13:03:30;;;;;;;15.93;10.07;;;12.70;56.90;;;;;;10026477;29;20771;-87
2023/03/17 13:08:38;;;;;;;15.73;9.57;;;12.20;36.30;;;;;;10024362;29;20819;-86
2023/03/17 13:13:48;;;;;;;14.33;10.20;;;12.00;40.00;;;;;;10014210;29;20414;-87
2023/03/17 13:18:52;;;;;;;12.57;8.97;;;12.20;43.90;;;;;;10021481;29;20276;-87
2023/03/17 13:23:58;;;;;;;8.70;6.23;;;12.20;43.60;;;;;;10024943;29;20358;-87
2023/03/17 13:29:21;;;;;;;14.33;8.43;;;11.90;53.60;;;;;;10052064;29;20259;-87
2023/03/17 13:34:27;;;;;;;14.10;7.87;;;11.90;42.00;;;;;;10070968;29;20947;-87
2023/03/17 13:40:06;;;;;;;14.33;8.53;;;12.20;44.70;;;;;;10072276;29;20834;-87
2023/03/17 13:45:45;;;;;;;11.07;6.70;;;12.50;44.10;;;;;;10080991;29;20300;-87
2023/03/17 13:50:56;;;;;;;11.23;6.40;;;13.10;43.10;;;;;;10074306;29;20256;-87
2023/03/17 13:56:16;;;;;;;14.23;7.87;;;13.30;43.50;;;;;;10107875;29;20272;-86
2023/03/17 14:01:21;;;;;;;12.63;7.20;;;13.80;42.90;;;;;;10113999;29;20267;-87
2023/03/17 14:06:30;;;;;;;12.47;8.10;;;13.20;35.10;;;;;;10123081;29;20248;-87
2023/03/17 14:11:36;;;;;;;13.53;7.23;;;13.00;34.90;;;;;;10089792;29;20309;-87
2023/03/17 14:17:08;;;;;;;6.60;4.17;;;13.40;38.10;;;;;;10087889;29;20714;-87
2023/03/17 14:22:20;;;;;;;11.20;6.00;;;13.20;44.10;;;;;;10089221;29;20340;-87
2023/03/17 14:27:25;;;;;;;10.73;7.70;;;13.50;48.20;;;;;;10086598;29;20233;-87
2023/03/17 14:32:28;;;;;;;7.77;6.23;;;13.50;35.00;;;;;;10089164;29;20285;-87
2023/03/17 14:37:31;;;;;;;13.93;7.70;;;12.90;42.20;;;;;;10106915;29;20285;-85
2023/03/17 14:42:34;;;;;;;16.27;7.93;;;12.10;32.90;;;;;;10063770;29;20306;-86
2023/03/17 14:47:40;;;;;;;11.30;7.37;;;11.80;38.30;;;;;;10102769;29;20236;-87
2023/03/17 14:52:43;;;;;;;13.67;7.60;;;11.60;36.60;;;;;;10104251;29;20354;-86
2023/03/17 14:57:51;;;;;;;11.73;7.27;;;11.40;32.80;;;;;;10104539;29;20259;-87
2023/03/17 15:02:56;;;;;;;14.10;5.97;;;11.30;35.80;;;;;;10096859;29;20302;-86
2023/03/17 15:07:58;;;;;;;14.37;6.87;;;11.20;44.90;;;;;;10104824;29;20239;-87
2023/03/17 15:13:05;;;;;;;13.33;7.47;;;11.30;36.60;;;;;;10094986;29;20320;-86
2023/03/17 15:18:16;;;;;;;12.60;7.83;;;11.30;38.80;;;;;;10099238;29;20309;-87
2023/03/17 15:23:22;;;;;;;12.63;6.87;;;11.10;44.90;;;;;;10078078;29;20237;-87
2023/03/17 15:28:27;;;;;;;7.17;5.10;;;11.30;48.00;;;;;;10111753;29;20241;-86
2023/03/17 15:33:35;;;;;;;10.57;6.37;;;11.50;58.70;;;;;;10102766;29;20638;-86
2023/03/17 15:38:39;;;;;;;11.30;6.90;;;11.40;44.70;;;;;;10093781;29;20730;-86
2023/03/17 15:43:41;;;;;;;6.80;5.70;;;11.50;42.10;;;;;;10094393;29;20269;-87
2023/03/17 15:48:44;;;;;;;11.57;6.70;;;11.40;56.10;;;;;;10094588;29;20304;-86
2023/03/17 15:53:47;;;;;;;17.87;9.00;;;11.50;56.00;;;;;;10093597;29;20658;-86
2023/03/17 15:58:51;;;;;;;21.93;10.90;;;11.60;50.30;;;;;;10059546;29;20258;-86
2023/03/17 16:03:53;;;;;;;7.33;4.73;;;11.60;49.50;;;;;;10073684;29;20237;-86
2023/03/17 16:08:56;;;;;;;6.33;5.10;;;11.90;68.80;;;;;;10055316;29;20256;-86
2023/03/17 16:13:59;;;;;;;8.93;6.90;;;12.10;66.10;;;;;;10092459;29;20281;-86
2023/03/17 16:19:03;;;;;;;18.70;9.33;;;12.30;61.10;;;;;;9392240;29;10000670;-86
2023/03/17 16:24:14;;;;;;;10.17;6.33;;;12.20;55.70;;;;;;10071165;29;20244;-86
2023/03/17 16:29:18;;;;;;;16.80;9.13;;;12.30;62.40;;;;;;10102735;29;20307;-86
2023/03/17 16:34:22;;;;;;;9.03;6.70;;;11.90;57.50;;;;;;10093525;29;20308;-86
2023/03/17 16:39:25;;;;;;;12.07;6.60;;;11.50;65.60;;;;;;10085516;29;20261;-86
2023/03/17 16:44:28;;;;;;;19.33;10.23;;;11.60;64.80;;;;;;10049914;29;20245;-86
2023/03/17 16:49:30;;;;;;;20.10;10.67;;;11.70;59.30;;;;;;10072606;29;20240;-86
2023/03/17 16:54:33;;;;;;;11.10;7.93;;;11.50;50.50;;;;;;10102871;29;20400;-86
2023/03/17 16:59:35;;;;;;;12.23;6.20;;;11.60;63.20;;;;;;10105544;29;20280;-86
2023/03/17 17:04:39;;;;;;;12.07;7.90;;;11.60;68.20;;;;;;10105321;29;20648;-86
2023/03/17 17:09:42;;;;;;;12.53;6.43;;;11.40;64.80;;;;;;10097642;29;20241;-86
2023/03/17 17:14:45;;;;;;;14.33;8.93;;;11.50;77.00;;;;;;10098896;29;20323;-86
2023/03/17 17:19:47;;;;;;;13.20;9.37;;;11.50;70.50;;;;;;10106146;29;20331;-86
2023/03/17 17:24:50;;;;;;;13.57;7.50;;;11.40;64.30;;;;;;10108187;29;20261;-86
2023/03/17 17:29:52;;;;;;;24.27;9.97;;;11.50;75.50;;;;;;10109649;29;20295;-86
2023/03/17 17:34:55;;;;;;;13.13;8.23;;;11.50;70.90;;;;;;10086757;29;20900;-86
2023/03/17 17:39:57;;;;;;;16.83;11.63;;;11.60;79.00;;;;;;10102987;29;20702;-86
2023/03/17 17:45:00;;;;;;;14.93;9.07;;;11.80;75.80;;;;;;10103616;29;20244;-86
2023/03/17 17:50:04;;;;;;;23.40;13.27;;;11.80;79.30;;;;;;10103599;29;20245;-87
2023/03/17 17:55:07;;;;;;;27.53;16.33;;;11.70;77.10;;;;;;10102609;29;20708;-86
2023/03/17 18:00:15;;;;;;;21.67;13.70;;;11.30;65.60;;;;;;10102809;29;20324;-86
2023/03/17 18:05:18;;;;;;;14.67;9.53;;;11.40;77.10;;;;;;10099981;29;20296;-86
2023/03/17 18:10:23;;;;;;;22.87;13.57;;;11.30;84.50;;;;;;10103715;29;20248;-86
2023/03/17 18:15:26;;;;;;;12.87;5.83;;;11.50;69.30;;;;;;10094898;29;20756;-86
2023/03/17 18:20:30;;;;;;;8.77;5.63;;;11.80;88.80;;;;;;10103683;29;20268;-87
2023/03/17 18:25:33;;;;;;;16.00;9.60;;;11.70;86.10;;;;;;10104851;29;20240;-86
2023/03/17 18:30:36;;;;;;;8.47;5.63;;;11.50;80.50;;;;;;10101059;29;20655;-86
2023/03/17 18:35:39;;;;;;;11.97;8.17;;;11.50;90.60;;;;;;10097531;29;20711;-87
2023/03/17 18:40:42;;;;;;;15.53;7.27;;;11.70;82.30;;;;;;10089714;29;20645;-87
2023/03/17 18:45:44;;;;;;;21.30;14.00;;;11.70;81.10;;;;;;10073894;29;20479;-87
2023/03/17 18:50:47;;;;;;;19.10;10.47;;;11.50;72.40;;;;;;10052768;29;20274;-87
2023/03/17 18:55:50;;;;;;;19.47;11.67;;;11.60;82.40;;;;;;10066571;29;20767;-87
2023/03/17 19:00:58;;;;;;;17.83;9.70;;;11.30;71.60;;;;;;10095470;29;20316;-87
2023/03/17 19:06:13;;;;;;;16.60;10.57;;;11.40;87.30;;;;;;10096175;29;20296;-85
2023/03/17 19:11:18;;;;;;;32.23;21.53;;;11.60;70.50;;;;;;10074016;29;20677;-85
2023/03/17 19:16:20;;;;;;;33.87;21.93;;;9.10;57.90;;;;;;10101972;29;20212;-85
2023/03/17 19:21:23;;;;;;;38.90;22.60;;;7.30;57.40;;;;;;10094184;29;20722;-86
2023/03/17 19:26:26;;;;;;;26.97;13.10;;;6.50;64.60;;;;;;10100731;29;20254;-85
2023/03/17 19:31:29;;;;;;;31.93;20.13;;;6.50;99.90;;;;;;10079897;29;20873;-87
2023/03/17 19:36:35;;;;;;;22.43;11.37;;;7.40;99.90;;;;;;10089679;29;20223;-86
2023/03/17 19:41:38;;;;;;;22.27;11.47;;;8.50;99.90;;;;;;10098663;29;20293;-86
2023/03/17 19:46:41;;;;;;;16.37;9.33;;;9.10;99.90;;;;;;10077024;29;20205;-85
2023/03/17 19:51:43;;;;;;;17.73;8.83;;;9.70;99.90;;;;;;10084306;29;20220;-86
2023/03/17 19:56:46;;;;;;;23.07;11.07;;;10.20;99.90;;;;;;10113923;29;20217;-85
2023/03/17 20:01:49;;;;;;;15.67;10.53;;;10.50;99.90;;;;;;10098431;29;20731;-86
2023/03/17 20:06:54;;;;;;;16.77;10.40;;;10.50;99.90;;;;;;10082813;29;20740;-86
2023/03/17 20:11:57;;;;;;;17.50;10.77;;;10.60;99.90;;;;;;10071592;29;20245;-84
2023/03/17 20:17:00;;;;;;;20.97;14.10;;;10.90;99.90;;;;;;10078942;29;20322;-85
2023/03/17 20:22:03;;;;;;;20.03;10.27;;;10.80;96.90;;;;;;10098274;29;20343;-84
2023/03/17 20:27:06;;;;;;;20.53;10.20;;;10.60;99.90;;;;;;10081216;29;20241;-86
2023/03/17 20:32:10;;;;;;;19.53;10.37;;;10.50;99.90;;;;;;10079799;29;20250;-86
2023/03/17 20:37:13;;;;;;;22.83;14.00;;;10.50;99.90;;;;;;10111656;29;20224;-87
2023/03/17 20:42:16;;;;;;;21.03;13.17;;;10.10;97.80;;;;;;10084173;29;20289;-88
2023/03/17 20:47:22;;;;;;;23.73;13.23;;;9.90;99.30;;;;;;10096472;29;20213;-88
2023/03/17 20:52:28;;;;;;;19.50;11.40;;;9.90;97.50;;;;;;10074347;29;20651;-88
2023/03/17 20:57:32;;;;;;;27.97;16.37;;;9.60;99.40;;;;;;10083286;29;20585;-88
2023/03/17 21:02:35;;;;;;;23.43;13.10;;;9.50;91.60;;;;;;10088616;29;20229;-87
2023/03/17 21:07:38;;;;;;;19.27;10.70;;;10.00;99.90;;;;;;10067021;29;20644;-87
2023/03/17 21:12:41;;;;;;;15.40;8.53;;;9.90;99.90;;;;;;10053803;29;20244;-88
2023/03/17 21:17:44;;;;;;;15.63;8.57;;;9.80;99.50;;;;;;10090611;29;20275;-86
2023/03/17 21:22:47;;;;;;;17.80;11.70;;;9.70;99.90;;;;;;10093008;29;20272;-86
2023/03/17 21:27:51;;;;;;;20.73;12.77;;;9.60;99.90;;;;;;10091505;29;20248;-87
2023/03/17 21:32:53;;;;;;;15.00;8.90;;;9.90;98.30;;;;;;10090289;29;20280;-87
2023/03/17 21:37:56;;;;;;;19.07;10.77;;;10.00;99.90;;;;;;10067766;29;20245;-87
2023/03/17 21:42:59;;;;;;;18.87;11.07;;;10.40;99.90;;;;;;10090356;29;20268;-87
2023/03/17 21:48:02;;;;;;;31.53;17.83;;;10.50;94.30;;;;;;10091066;29;20245;-87
2023/03/17 21:53:04;;;;;;;22.60;12.80;;;10.60;93.10;;;;;;10076245;29;20273;-87
2023/03/17 21:58:07;;;;;;;21.97;13.00;;;10.40;97.80;;;;;;10088755;29;20659;-87
2023/03/17 22:03:10;;;;;;;26.93;15.33;;;10.30;95.70;;;;;;10055249;29;20340;-87
2023/03/17 22:08:13;;;;;;;25.47;15.37;;;10.00;90.70;;;;;;10087983;29;20252;-87
2023/03/17 22:13:16;;;;;;;17.10;10.43;;;9.70;90.70;;;;;;10064373;29;20245;-87
2023/03/17 22:18:18;;;;;;;11.87;7.37;;;9.80;97.00;;;;;;10084325;29;20817;-87
2023/03/17 22:23:22;;;;;;;20.97;11.27;;;10.00;99.90;;;;;;10056093;29;20704;-87
2023/03/17 22:28:25;;;;;;;17.10;10.43;;;10.30;92.80;;;;;;10076435;29;20245;-87
2023/03/17 22:33:28;;;;;;;23.53;15.27;;;10.30;98.20;;;;;;10097596;29;20710;-87
2023/03/17 22:38:30;;;;;;;14.67;9.67;;;9.90;80.70;;;;;;10105069;29;20300;-88
2023/03/17 22:43:35;;;;;;;16.10;8.87;;;10.20;94.70;;;;;;10110893;29;20285;-87
2023/03/17 22:48:39;;;;;;;10.40;6.93;;;9.80;97.30;;;;;;10112449;29;20691;-87
2023/03/17 22:53:41;;;;;;;17.73;10.87;;;9.90;99.90;;;;;;10104284;29;20321;-87
2023/03/17 22:58:45;;;;;;;13.97;8.23;;;10.10;95.70;;;;;;10113508;29;20244;-87
2023/03/17 23:03:47;;;;;;;22.40;14.73;;;10.00;99.90;;;;;;10108936;29;20264;-87
2023/03/17 23:08:51;;;;;;;14.20;8.17;;;9.70;91.50;;;;;;10111791;29;20274;-87
2023/03/17 23:13:54;;;;;;;24.80;15.70;;;9.60;99.90;;;;;;10107316;29;20240;-86
2023/03/17 23:18:57;;;;;;;11.47;7.60;;;9.30;91.20;;;;;;10091546;29;20344;-85
2023/03/17 23:24:00;;;;;;;23.77;14.33;;;9.70;99.90;;;;;;10055871;29;20301;-87
2023/03/17 23:29:05;;;;;;;11.80;7.67;;;10.00;96.80;;;;;;10086702;29;20241;-87
2023/03/17 23:34:08;;;;;;;14.13;6.80;;;10.70;98.40;;;;;;10057560;29;20257;-87
2023/03/17 23:39:11;;;;;;;16.63;10.53;;;10.90;97.90;;;;;;10088425;29;20761;-87
2023/03/17 23:44:13;;;;;;;18.93;11.20;;;10.30;94.40;;;;;;10094601;29;20276;-87
2023/03/17 23:49:16;;;;;;;18.17;10.40;;;10.30;93.50;;;;;;10077944;29;20249;-87
2023/03/17 23:54:19;;;;;;;24.63;12.27;;;10.00;94.40;;;;;;10111041;29;20272;-87
2023/03/17 23:59:22;;;;;;;22.80;13.20;;;9.80;92.70;;;;;;10131916;29;20299;-87
